Time;durP1;ratioP1;P1;durP2;ratioP2;P2;SDS_P1;SDS_P2;PMS_P1;PMS_P2;Temp;Humidity;BMP_temperature;BMP_pressure;BME280_temperature;BME280_humidity;BME280_pressure;Samples;Min_cycle;Max_cycle;Signal;HPM_P1;HPM_P2
2023/02/18 00:01:49;;;;;;;6.70;2.00;;;;;;;7.21;85.31;98968.30;103306;1252;137806;-70
2023/02/18 00:04:16;;;;;;;6.30;1.80;;;;;;;7.18;85.21;98969.77;103357;1252;97779;-70
2023/02/18 00:06:43;;;;;;;7.40;2.10;;;;;;;7.14;85.00;98980.81;103314;1256;111854;-70
2023/02/18 00:09:13;;;;;;;5.50;1.80;;;;;;;7.10;84.89;98979.43;103266;1253;137892;-70
2023/02/18 00:11:40;;;;;;;8.00;2.20;;;;;;;7.04;84.64;98989.70;103438;1253;97680;-69
2023/02/18 00:14:12;;;;;;;9.60;2.60;;;;;;;6.98;84.16;98992.98;103280;1253;137756;-69
2023/02/18 00:16:40;;;;;;;8.00;2.60;;;;;;;6.92;83.39;98996.18;103362;1252;97888;-65
2023/02/18 00:19:11;;;;;;;8.30;2.10;;;;;;;6.86;83.08;99007.30;103170;1253;138133;-68
2023/02/18 00:21:41;;;;;;;10.60;2.30;;;;;;;6.80;81.79;98992.27;102504;1253;1002967;-67
2023/02/18 00:24:14;;;;;;;10.40;2.10;;;;;;;6.76;81.94;99011.63;103362;1256;97893;-68
2023/02/18 00:26:53;;;;;;;7.40;2.10;;;;;;;6.73;81.70;99008.80;103324;1256;137982;-69
2023/02/18 00:29:24;;;;;;;11.00;2.20;;;;;;;6.71;81.38;99007.31;103306;1253;97859;-68
2023/02/18 00:31:51;;;;;;;8.30;2.30;;;;;;;6.69;81.07;99007.93;103367;1253;137989;-68
2023/02/18 00:34:22;;;;;;;10.20;2.50;;;;;;;6.65;80.83;99014.27;103156;1253;107661;-69
2023/02/18 00:36:49;;;;;;;8.20;2.00;;;;;;;6.62;80.44;99018.84;103355;1253;97774;-69
2023/02/18 00:39:16;;;;;;;11.60;2.20;;;;;;;6.59;80.10;99020.69;103212;1252;137549;-69
2023/02/18 00:41:44;;;;;;;6.40;2.10;;;;;;;6.56;80.01;99018.55;103276;1253;97681;-69
2023/02/18 00:44:12;;;;;;;10.40;2.00;;;;;;;6.54;79.60;99022.62;103089;1253;137899;-69
2023/02/18 00:46:40;;;;;;;12.00;2.40;;;;;;;6.52;79.23;99014.91;102507;1258;1003056;-69
2023/02/18 00:49:19;;;;;;;12.60;2.30;;;;;;;6.49;78.58;99014.66;103188;1258;138473;-69
2023/02/18 00:51:46;;;;;;;19.50;2.70;;;;;;;6.48;77.87;99014.36;103306;1253;108448;-69
2023/02/18 00:54:13;;;;;;;15.50;2.50;;;;;;;6.48;76.88;99013.35;102546;1256;1003287;-69
2023/02/18 00:56:41;;;;;;;11.30;2.20;;;;;;;6.46;76.91;99026.50;103078;1253;325389;-69
2023/02/18 00:59:08;;;;;;;9.80;2.20;;;;;;;6.45;76.89;99014.12;103419;1253;108500;-69
2023/02/18 01:01:45;;;;;;;10.60;2.30;;;;;;;6.44;77.07;99027.45;103322;1253;137996;-69
2023/02/18 01:04:15;;;;;;;12.00;2.60;;;;;;;6.42;76.14;99025.10;103360;1253;106230;-69
2023/02/18 01:06:42;;;;;;;8.90;2.10;;;;;;;6.41;76.05;99026.52;103403;1253;97893;-69
2023/02/18 01:09:13;;;;;;;12.70;2.40;;;;;;;6.40;75.83;99031.72;103186;1256;137799;-69
2023/02/18 01:11:43;;;;;;;9.60;1.90;;;;;;;6.38;75.97;99029.38;103338;1256;107810;-68
2023/02/18 01:14:13;;;;;;;9.70;2.00;;;;;;;6.36;75.77;99023.40;103094;1253;138016;-68
2023/02/18 01:16:40;;;;;;;9.80;2.40;;;;;;;6.37;75.45;99034.61;103348;1256;106690;-68
2023/02/18 01:19:11;;;;;;;10.00;2.30;;;;;;;6.36;75.56;99032.71;103235;1252;139292;-69
2023/02/18 01:21:43;;;;;;;9.60;1.90;;;;;;;6.36;75.47;99028.24;103433;1256;110565;-69
2023/02/18 01:24:11;;;;;;;13.40;2.70;;;;;;;6.34;75.33;99024.33;103405;1252;108450;-69
2023/02/18 01:26:38;;;;;;;15.30;2.60;;;;;;;6.32;75.19;99030.48;103222;1253;138709;-69
2023/02/18 01:29:07;;;;;;;12.00;1.90;;;;;;;6.30;74.88;99031.40;103380;1253;107398;-69
2023/02/18 01:31:34;;;;;;;8.70;2.30;;;;;;;6.30;75.14;99040.39;103262;1256;138315;-69
2023/02/18 01:34:01;;;;;;;13.20;2.20;;;;;;;6.29;74.54;99016.08;103425;1253;110999;-69
2023/02/18 01:36:29;;;;;;;10.00;2.40;;;;;;;6.29;74.69;99024.00;103260;1256;108071;-68
2023/02/18 01:39:16;;;;;;;8.00;2.10;;;;;;;6.29;74.69;99025.71;103325;1254;138067;-68
2023/02/18 01:41:43;;;;;;;9.50;2.20;;;;;;;6.29;74.73;99022.61;103368;1253;107361;-69
2023/02/18 01:44:16;;;;;;;9.10;1.70;;;;;;;6.28;74.67;99023.50;103237;1256;137995;-68
2023/02/18 01:46:45;;;;;;;10.80;2.40;;;;;;;6.26;74.72;99013.88;103418;1253;111322;-69
2023/02/18 01:49:19;;;;;;;8.90;1.90;;;;;;;6.25;74.52;99017.06;103219;1256;138336;-69
2023/02/18 01:51:50;;;;;;;7.50;2.10;;;;;;;6.23;74.11;99012.64;103396;1256;97768;-69
2023/02/18 01:54:22;;;;;;;9.50;2.20;;;;;;;6.22;74.09;99013.38;103354;1256;108443;-69
2023/02/18 01:56:51;;;;;;;13.10;2.50;;;;;;;6.21;74.31;99011.66;103331;1255;138603;-69
2023/02/18 01:59:24;;;;;;;8.10;2.00;;;;;;;6.20;73.92;99006.52;103472;1252;110292;-70
2023/02/18 02:01:51;;;;;;;9.80;2.50;;;;;;;6.20;74.33;99018.44;103355;1256;138012;-69
2023/02/18 02:04:30;;;;;;;6.60;1.80;;;;;;;6.19;74.08;99015.54;103427;1253;97793;-68
2023/02/18 02:06:58;;;;;;;12.40;2.10;;;;;;;6.18;73.91;99012.64;102427;1255;1003250;-69
2023/02/18 02:09:30;;;;;;;9.60;1.90;;;;;;;6.17;73.82;99008.20;103334;1253;97659;-69
2023/02/18 02:12:21;;;;;;;12.90;2.10;;;;;;;6.15;73.90;99006.87;103378;1252;111076;-69
2023/02/18 02:15:05;;;;;;;13.20;2.20;;;;;;;6.13;73.73;99002.82;103239;1253;138260;-69
2023/02/18 02:17:44;;;;;;;13.30;2.60;;;;;;;6.10;74.07;98998.95;103256;1253;97784;-68
2023/02/18 02:20:41;;;;;;;11.70;2.30;;;;;;;6.06;73.60;99006.29;103165;1253;137979;-69
2023/02/18 02:24:01;;;;;;;12.60;2.20;;;;;;;6.02;73.35;99003.33;103357;1256;97810;-68
2023/02/18 02:26:58;;;;;;;13.00;2.60;;;;;;;5.98;73.50;98991.21;102643;1259;138008;-70
2023/02/18 02:30:01;;;;;;;13.20;2.50;;;;;;;5.95;73.42;98991.00;102696;1264;107859;-70
2023/02/18 02:33:07;;;;;;;13.90;2.50;;;;;;;5.90;73.18;98997.17;102630;1259;138306;-71
2023/02/18 02:35:37;;;;;;;12.50;2.20;;;;;;;5.86;72.81;98990.91;102719;1259;107117;-70
2023/02/18 02:38:12;;;;;;;11.30;2.40;;;;;;;5.83;72.96;98996.17;102760;1263;138251;-69
2023/02/18 02:40:49;;;;;;;13.20;2.60;;;;;;;5.81;72.83;98994.70;102867;1259;109514;-69
2023/02/18 02:43:29;;;;;;;13.40;2.40;;;;;;;5.78;72.79;99000.85;102878;1259;138490;-70
2023/02/18 02:46:09;;;;;;;18.60;2.80;;;;;;;5.74;73.05;98989.73;101998;1259;1002929;-70
2023/02/18 02:48:46;;;;;;;13.80;2.50;;;;;;;5.71;72.99;99007.94;102605;1259;1003327;-68
2023/02/18 02:51:18;;;;;;;11.80;2.30;;;;;;;5.69;73.13;99000.58;102673;1259;138792;-70
2023/02/18 02:53:46;;;;;;;11.20;2.30;;;;;;;5.68;73.08;99008.56;102642;1259;111418;-70
2023/02/18 02:56:17;;;;;;;13.70;2.40;;;;;;;5.66;73.08;99017.58;102547;1263;138243;-69
2023/02/18 02:58:52;;;;;;;13.00;2.40;;;;;;;5.66;72.91;99023.13;102846;1259;97798;-69
2023/02/18 03:01:36;;;;;;;16.30;2.80;;;;;;;5.63;73.34;99020.45;102912;1253;138684;-68
2023/02/18 03:04:38;;;;;;;13.00;2.50;;;;;;;5.61;73.48;99025.53;103304;1255;97889;-69
2023/02/18 03:07:19;;;;;;;14.40;2.80;;;;;;;5.60;73.05;99027.12;103209;1258;138458;-71
2023/02/18 03:10:11;;;;;;;14.40;2.00;;;;;;;5.58;73.62;99039.92;103277;1254;107734;-70
2023/02/18 03:12:51;;;;;;;9.70;2.20;;;;;;;5.57;73.65;99037.73;103218;1256;97873;-68
2023/02/18 03:15:24;;;;;;;14.20;2.40;;;;;;;5.56;73.71;99038.60;103861;1253;138460;-70
2023/02/18 03:17:59;;;;;;;14.90;2.40;;;;;;;5.53;73.53;99034.03;103269;1253;97747;-70
2023/02/18 03:20:34;;;;;;;9.60;2.90;;;;;;;5.52;73.20;99032.35;103287;1259;138255;-70
2023/02/18 03:23:08;;;;;;;10.30;1.90;;;;;;;5.48;73.45;99041.79;103154;1253;107659;-70
2023/02/18 03:25:38;;;;;;;10.70;2.30;;;;;;;5.46;73.47;99044.77;103182;1256;138436;-66
2023/02/18 03:28:11;;;;;;;14.70;2.50;;;;;;;5.43;73.22;99036.94;103331;1253;106690;-69
2023/02/18 03:30:46;;;;;;;13.00;2.50;;;;;;;5.41;73.02;99050.62;103456;1253;97814;-68
2023/02/18 03:33:18;;;;;;;14.90;3.00;;;;;;;5.39;73.03;99047.76;103022;1253;138503;-68
2023/02/18 03:35:50;;;;;;;11.20;2.30;;;;;;;5.37;73.39;99045.55;103214;1256;105977;-69
2023/02/18 03:38:24;;;;;;;13.30;2.80;;;;;;;5.35;73.19;99046.12;103176;1253;138081;-69
2023/02/18 03:40:52;;;;;;;11.80;2.40;;;;;;;5.34;73.06;99044.80;103309;1253;107456;-69
2023/02/18 03:43:19;;;;;;;13.40;2.60;;;;;;;5.32;72.68;99040.88;103078;1258;138391;-69
2023/02/18 03:45:47;;;;;;;15.50;2.40;;;;;;;5.31;73.17;99067.63;103357;1253;112075;-70
2023/02/18 03:48:17;;;;;;;15.40;2.70;;;;;;;5.30;72.93;99062.14;103217;1254;107171;-70
2023/02/18 03:50:47;;;;;;;13.60;2.40;;;;;;;5.30;72.72;99062.50;103111;1254;138299;-70
2023/02/18 03:53:17;;;;;;;15.10;2.60;;;;;;;5.29;72.75;99073.39;103167;1253;108012;-69
2023/02/18 03:55:44;;;;;;;12.70;2.50;;;;;;;5.26;72.62;99072.95;103159;1253;138521;-69
2023/02/18 03:58:21;;;;;;;14.60;2.80;;;;;;;5.27;72.78;99072.24;103415;1256;111295;-70
2023/02/18 04:00:48;;;;;;;13.20;2.50;;;;;;;5.26;73.11;99088.64;103394;1253;108477;-70
2023/02/18 04:03:16;;;;;;;16.90;2.80;;;;;;;5.25;72.97;99084.38;101854;1258;1003713;-71
2023/02/18 04:05:44;;;;;;;11.50;2.50;;;;;;;5.24;73.26;99086.46;103382;1257;107320;-70
2023/02/18 04:08:11;;;;;;;14.10;2.30;;;;;;;5.24;72.97;99085.43;103160;1257;138163;-69
2023/02/18 04:10:38;;;;;;;10.50;2.30;;;;;;;5.23;72.97;99089.95;103308;1253;111270;-69
2023/02/18 04:13:08;;;;;;;17.50;2.70;;;;;;;5.20;72.36;99071.05;103117;1253;138457;-69
2023/02/18 04:15:55;;;;;;;16.30;2.30;;;;;;;5.18;72.74;99096.80;103321;1253;97690;-69
2023/02/18 04:18:23;;;;;;;14.10;2.60;;;;;;;5.18;73.00;99092.48;103312;1253;105800;-70
2023/02/18 04:20:50;;;;;;;10.40;2.40;;;;;;;5.17;72.92;99108.18;103302;1258;138369;-69
2023/02/18 04:23:18;;;;;;;14.40;2.70;;;;;;;5.16;72.85;99083.92;103273;1253;110445;-69
2023/02/18 04:25:46;;;;;;;10.70;2.50;;;;;;;5.15;72.80;99095.15;103081;1254;138172;-69
2023/02/18 04:28:15;;;;;;;16.10;2.60;;;;;;;5.13;72.90;99095.38;103343;1256;97867;-69
2023/02/18 04:30:46;;;;;;;9.40;2.50;;;;;;;5.13;73.22;99103.66;103887;1253;106773;-69
2023/02/18 04:33:15;;;;;;;11.30;2.70;;;;;;;5.12;72.92;99097.13;103179;1253;137787;-70
2023/02/18 04:35:42;;;;;;;13.20;2.40;;;;;;;5.11;72.84;99096.13;103341;1252;111257;-69
2023/02/18 04:38:30;;;;;;;14.50;2.70;;;;;;;5.09;72.79;99102.05;102828;1262;138108;-69
2023/02/18 04:40:57;;;;;;;14.60;2.70;;;;;;;5.08;73.20;99103.98;102929;1257;97932;-68
2023/02/18 04:43:24;;;;;;;13.50;2.40;;;;;;;5.07;72.99;99102.63;102839;1262;138302;-69
2023/02/18 04:45:54;;;;;;;11.80;2.70;;;;;;;5.05;72.86;99099.08;103001;1259;97934;-69
2023/02/18 04:48:21;;;;;;;15.50;2.70;;;;;;;5.05;73.07;99099.77;102931;1262;113140;-69
2023/02/18 04:50:49;;;;;;;17.10;2.70;;;;;;;5.03;72.91;99096.53;102808;1262;138468;-69
2023/02/18 04:53:36;;;;;;;9.70;2.10;;;;;;;5.01;72.66;99086.23;102879;1261;98307;-69
2023/02/18 04:56:15;;;;;;;9.80;2.60;;;;;;;4.99;72.61;99105.25;102076;1259;1002554;-70
2023/02/18 04:58:42;;;;;;;15.30;2.60;;;;;;;4.98;72.67;99084.95;102893;1259;97681;-70
2023/02/18 05:01:17;;;;;;;16.20;3.00;;;;;;;4.97;72.76;99098.24;102833;1262;138229;-70
2023/02/18 05:03:47;;;;;;;13.50;2.80;;;;;;;4.95;72.19;99089.19;102775;1259;107649;-70
2023/02/18 05:06:25;;;;;;;13.40;2.40;;;;;;;4.93;72.29;99090.95;102797;1259;97831;-70
2023/02/18 05:08:54;;;;;;;15.40;2.60;;;;;;;4.91;72.54;99096.36;102709;1259;138639;-70
2023/02/18 05:11:24;;;;;;;15.70;2.60;;;;;;;4.90;72.68;99108.11;103139;1258;97884;-70
2023/02/18 05:13:51;;;;;;;13.90;2.60;;;;;;;4.89;72.73;99103.81;103072;1256;138175;-70
2023/02/18 05:16:19;;;;;;;14.10;2.90;;;;;;;4.88;72.73;99107.47;103126;1256;107181;-70
2023/02/18 05:18:46;;;;;;;10.10;2.30;;;;;;;4.86;72.73;99087.54;103254;1258;97853;-70
2023/02/18 05:21:13;;;;;;;13.50;2.50;;;;;;;4.84;72.81;99111.84;103175;1257;137913;-70
2023/02/18 05:23:41;;;;;;;9.40;2.40;;;;;;;4.84;72.99;99109.95;103231;1256;97868;-70
2023/02/18 05:26:08;;;;;;;13.80;2.80;;;;;;;4.85;72.86;99120.80;103069;1257;137891;-69
2023/02/18 05:28:46;;;;;;;10.80;2.60;;;;;;;4.84;72.69;99119.44;103174;1258;107807;-70
2023/02/18 05:31:17;;;;;;;11.80;2.90;;;;;;;4.82;72.74;99117.07;102999;1254;138761;-70
2023/02/18 05:33:44;;;;;;;12.80;2.60;;;;;;;4.81;72.69;99118.14;103206;1258;108495;-68
2023/02/18 05:36:11;;;;;;;14.20;2.80;;;;;;;4.79;72.65;99123.17;103152;1260;97792;-69
2023/02/18 05:38:42;;;;;;;19.90;2.70;;;;;;;4.78;72.58;99107.89;103063;1258;137963;-69
2023/02/18 05:41:09;;;;;;;11.50;2.70;;;;;;;4.76;72.94;99138.26;102389;1256;1003333;-69
2023/02/18 05:46:35;;;;;;;11.30;2.50;;;;;;;4.75;73.25;99145.02;103019;1257;108124;-69
2023/02/18 05:49:03;;;;;;;15.20;2.60;;;;;;;4.74;73.26;99141.05;103175;1257;97830;-69
2023/02/18 05:51:30;;;;;;;14.70;2.90;;;;;;;4.74;73.23;99142.45;103200;1258;112124;-70
2023/02/18 05:53:57;;;;;;;13.40;2.40;;;;;;;4.74;73.19;99148.29;103140;1259;107483;-69
2023/02/18 05:56:25;;;;;;;13.30;2.50;;;;;;;4.74;73.11;99141.05;103064;1255;138424;-69
2023/02/18 05:58:52;;;;;;;13.30;2.60;;;;;;;4.74;73.16;99147.95;103222;1258;107821;-70
2023/02/18 06:01:19;;;;;;;16.00;2.60;;;;;;;4.75;73.27;99161.52;102986;1259;138774;-70
2023/02/18 06:03:47;;;;;;;12.30;2.50;;;;;;;4.76;73.51;99154.78;103267;1256;112346;-69
2023/02/18 06:06:14;;;;;;;15.70;2.90;;;;;;;4.76;73.34;99158.39;103147;1259;108355;-69
2023/02/18 06:08:44;;;;;;;13.00;2.40;;;;;;;4.77;72.89;99153.55;103023;1256;138365;-69
2023/02/18 06:11:12;;;;;;;18.10;3.10;;;;;;;4.77;72.92;99154.59;103092;1259;107305;-69
2023/02/18 06:13:39;;;;;;;15.10;2.90;;;;;;;4.77;72.82;99168.70;103103;1258;138434;-69
2023/02/18 06:16:07;;;;;;;13.40;2.70;;;;;;;4.79;73.18;99168.67;103044;1257;111575;-69
2023/02/18 06:18:35;;;;;;;15.80;2.50;;;;;;;4.79;72.81;99168.83;103162;1258;106198;-68
2023/02/18 06:21:03;;;;;;;9.80;2.20;;;;;;;4.80;72.81;99180.17;103113;1258;138214;-69
2023/02/18 06:23:33;;;;;;;11.40;2.90;;;;;;;4.81;72.71;99173.25;103091;1257;107751;-69
2023/02/18 06:26:01;;;;;;;11.00;2.70;;;;;;;4.80;72.69;99154.85;103028;1259;138625;-69
2023/02/18 06:28:28;;;;;;;12.90;3.00;;;;;;;4.80;72.08;99155.70;103202;1254;111299;-70
2023/02/18 06:30:55;;;;;;;13.30;2.70;;;;;;;4.80;72.34;99161.91;103190;1260;108053;-69
2023/02/18 06:33:23;;;;;;;14.70;2.80;;;;;;;4.80;71.98;99159.67;102486;1256;1003404;-70
2023/02/18 06:35:57;;;;;;;12.20;2.20;;;;;;;4.81;72.34;99180.31;103146;1259;107716;-70
2023/02/18 06:38:24;;;;;;;10.50;2.60;;;;;;;4.81;72.17;99173.08;102974;1259;138074;-69
2023/02/18 06:40:51;;;;;;;13.00;2.60;;;;;;;4.81;72.35;99187.70;103167;1256;111143;-69
2023/02/18 06:43:20;;;;;;;12.10;2.40;;;;;;;4.82;72.36;99181.13;102876;1259;138285;-69
2023/02/18 06:46:08;;;;;;;13.70;2.60;;;;;;;4.83;72.27;99182.14;102436;1256;1003429;-70
2023/02/18 06:48:37;;;;;;;16.50;2.90;;;;;;;4.84;72.36;99182.48;103151;1254;107723;-70
2023/02/18 06:51:05;;;;;;;10.30;2.60;;;;;;;4.84;72.30;99196.41;103100;1267;209165;-70
2023/02/18 06:53:52;;;;;;;14.90;3.00;;;;;;;4.87;72.37;99201.19;103148;1258;110711;-69
2023/02/18 06:56:20;;;;;;;15.10;2.80;;;;;;;4.88;72.31;99205.48;103054;1255;138450;-69
2023/02/18 06:58:47;;;;;;;12.90;2.80;;;;;;;4.90;72.55;99213.17;103158;1259;99069;-69
2023/02/18 07:01:35;;;;;;;14.40;2.70;;;;;;;4.91;72.00;99206.09;103078;1258;138116;-69
2023/02/18 07:04:22;;;;;;;13.10;2.90;;;;;;;4.92;72.05;99208.63;103152;1262;97824;-70
2023/02/18 07:06:50;;;;;;;13.30;2.50;;;;;;;4.94;71.73;99218.23;103259;1257;111748;-70
2023/02/18 07:09:26;;;;;;;10.40;2.40;;;;;;;4.97;71.75;99212.98;103130;1258;107073;-70
2023/02/18 07:12:12;;;;;;;;;;;;;;;4.99;71.82;99211.52;103184;1258;97698;-69
2023/02/18 07:14:39;;;;;;;11.60;2.70;;;;;;;5.01;71.81;99214.41;103049;1255;124268;-69
2023/02/18 07:17:07;;;;;;;12.20;2.80;;;;;;;5.03;71.65;99213.69;103110;1256;97913;-70
2023/02/18 07:19:36;;;;;;;15.70;2.70;;;;;;;5.05;71.02;99201.75;103120;1256;138256;-68
2023/02/18 07:22:07;;;;;;;17.40;2.90;;;;;;;5.07;71.17;99204.27;103115;1259;107407;-69
2023/02/18 07:24:34;;;;;;;14.70;2.80;;;;;;;5.12;71.30;99214.31;102376;1256;1003766;-69
2023/02/18 07:27:01;;;;;;;18.30;3.60;;;;;;;5.21;71.24;99212.70;103070;1258;138589;-69
2023/02/18 07:29:41;;;;;;;17.30;2.90;;;;;;;5.29;71.18;99208.35;103070;1257;97666;-68
2023/02/18 07:32:27;;;;;;;;;;;;;;;5.38;71.05;99224.11;102995;1259;138095;-70
2023/02/18 07:34:57;;;;;;;12.90;2.70;;;;;;;5.52;70.50;99208.22;103127;1260;107716;-70
2023/02/18 07:37:24;;;;;;;14.60;2.80;;;;;;;5.66;70.31;99220.06;103149;1256;138573;-68
2023/02/18 07:39:52;;;;;;;10.10;2.80;;;;;;;6.24;69.80;99214.38;103093;1261;106666;-69
2023/02/18 07:42:19;;;;;;;14.20;3.40;;;;;;;6.41;69.22;99211.27;103130;1267;97797;-69
2023/02/18 07:44:46;;;;;;;15.20;3.00;;;;;;;6.75;68.78;99211.53;103071;1254;138071;-70
2023/02/18 07:47:18;;;;;;;15.80;3.10;;;;;;;6.98;67.48;99200.55;103135;1259;106951;-70
2023/02/18 07:49:46;;;;;;;12.40;2.80;;;;;;;7.07;66.90;99216.17;103000;1255;138151;-70
2023/02/18 07:52:14;;;;;;;13.80;3.00;;;;;;;7.38;66.44;99214.38;103123;1257;107052;-70
2023/02/18 07:54:41;;;;;;;16.90;3.40;;;;;;;7.83;65.76;99220.70;103181;1257;97876;-70
2023/02/18 07:57:13;;;;;;;10.20;2.70;;;;;;;7.96;65.19;99214.50;103107;1259;138886;-70
2023/02/18 07:59:40;;;;;;;13.30;3.20;;;;;;;7.88;64.21;99218.05;103150;1260;107251;-70
2023/02/18 08:02:15;;;;;;;10.70;3.10;;;;;;;7.78;64.66;99225.20;102199;1254;1002833;-70
2023/02/18 08:04:42;;;;;;;16.80;2.70;;;;;;;7.68;64.97;99240.27;103077;1258;108095;-73
2023/02/18 08:07:14;;;;;;;15.70;3.30;;;;;;;7.68;64.39;99224.85;103074;1257;138343;-70
2023/02/18 08:09:41;;;;;;;14.00;3.10;;;;;;;7.50;64.43;99231.25;103067;1256;111301;-69
2023/02/18 08:12:10;;;;;;;13.70;3.00;;;;;;;7.31;64.28;99225.52;103029;1258;109289;-69
2023/02/18 08:14:37;;;;;;;13.40;3.20;;;;;;;7.15;64.31;99222.26;103007;1259;138657;-70
2023/02/18 08:17:04;;;;;;;15.30;2.90;;;;;;;7.02;64.90;99227.38;102323;1257;1002831;-71
2023/02/18 08:19:31;;;;;;;11.80;2.70;;;;;;;6.91;64.58;99218.79;103096;1258;138842;-70
2023/02/18 08:22:02;;;;;;;11.60;3.20;;;;;;;6.79;64.92;99227.45;103954;1257;111509;-70
2023/02/18 08:24:33;;;;;;;17.20;3.40;;;;;;;6.70;65.06;99217.07;104499;1254;107642;-69
2023/02/18 08:27:00;;;;;;;14.90;3.40;;;;;;;6.72;65.56;99227.88;103084;1258;138134;-70
2023/02/18 08:29:31;;;;;;;10.50;3.20;;;;;;;6.77;65.50;99227.38;102382;1256;1003709;-70
2023/02/18 08:31:58;;;;;;;10.50;3.10;;;;;;;6.83;65.62;99234.10;102314;1257;1003777;-70
2023/02/18 08:34:26;;;;;;;14.50;2.90;;;;;;;6.81;64.98;99226.36;103278;1259;110822;-70
2023/02/18 08:36:53;;;;;;;14.00;3.20;;;;;;;6.78;64.37;99206.59;103175;1258;107710;-70
2023/02/18 08:39:20;;;;;;;17.20;3.40;;;;;;;6.82;64.76;99213.04;103097;1258;137932;-70
2023/02/18 08:41:47;;;;;;;12.80;3.10;;;;;;;6.97;64.77;99230.30;103196;1261;108628;-70
2023/02/18 08:44:15;;;;;;;13.90;3.30;;;;;;;7.03;64.81;99225.66;103120;1258;138127;-70
2023/02/18 08:46:42;;;;;;;12.90;2.80;;;;;;;7.03;64.30;99231.88;103265;1259;111590;-70
2023/02/18 08:49:10;;;;;;;17.40;3.80;;;;;;;7.02;64.70;99236.41;103097;1260;138324;-70
2023/02/18 08:51:37;;;;;;;14.60;3.30;;;;;;;7.03;64.66;99241.54;103201;1257;97900;-70
2023/02/18 08:54:07;;;;;;;12.60;3.20;;;;;;;7.10;64.53;99236.45;103248;1258;107719;-70
2023/02/18 08:56:34;;;;;;;11.90;3.00;;;;;;;7.13;63.98;99242.40;103117;1257;138083;-71
2023/02/18 08:59:05;;;;;;;16.50;3.40;;;;;;;7.08;63.88;99244.64;103625;1256;110612;-69
2023/02/18 09:01:35;;;;;;;13.00;3.20;;;;;;;7.10;63.87;99255.13;103067;1259;138396;-69
2023/02/18 09:04:06;;;;;;;16.40;3.70;;;;;;;7.12;63.50;99249.52;103209;1254;98316;-70
2023/02/18 09:06:39;;;;;;;16.10;3.40;;;;;;;7.24;63.68;99249.29;103136;1260;109869;-70
2023/02/18 09:09:07;;;;;;;14.40;3.30;;;;;;;7.42;63.04;99259.38;103112;1258;137475;-69
2023/02/18 09:11:35;;;;;;;13.00;2.70;;;;;;;7.39;62.64;99253.09;103223;1257;111077;-69
2023/02/18 09:14:05;;;;;;;16.10;3.30;;;;;;;7.30;62.58;99254.94;103077;1257;137423;-69
2023/02/18 09:16:32;;;;;;;15.60;3.40;;;;;;;7.24;62.56;99257.38;103268;1260;97833;-68
2023/02/18 09:19:07;;;;;;;20.10;3.80;;;;;;;7.14;62.73;99267.93;103087;1257;137547;-70
2023/02/18 09:21:38;;;;;;;14.80;2.50;;;;;;;7.08;62.95;99258.11;103159;1257;97765;-69
2023/02/18 09:24:06;;;;;;;10.50;3.00;;;;;;;7.09;62.97;99274.67;101620;1258;1003345;-69
2023/02/18 09:26:43;;;;;;;11.90;3.50;;;;;;;7.05;62.87;99273.61;103536;1256;137658;-69
2023/02/18 09:29:11;;;;;;;13.60;3.10;;;;;;;7.05;62.85;99271.52;103334;1261;97877;-69
2023/02/18 09:31:38;;;;;;;14.40;2.90;;;;;;;7.07;62.35;99273.03;103125;1259;138326;-69
2023/02/18 09:34:08;;;;;;;17.50;3.40;;;;;;;7.07;62.19;99280.63;103177;1254;97816;-69
2023/02/18 09:36:39;;;;;;;15.60;3.10;;;;;;;7.05;61.60;99277.26;103568;1257;110677;-70
2023/02/18 09:39:18;;;;;;;15.30;3.00;;;;;;;6.99;61.99;99285.39;103091;1261;137627;-69
2023/02/18 09:41:49;;;;;;;13.60;2.80;;;;;;;6.97;62.07;99282.67;103282;1257;98307;-68
2023/02/18 09:44:22;;;;;;;15.00;3.30;;;;;;;6.95;61.20;99274.80;103243;1258;137215;-69
2023/02/18 09:46:52;;;;;;;12.80;3.30;;;;;;;6.94;62.05;99291.61;103452;1260;97889;-69
2023/02/18 09:49:23;;;;;;;17.50;3.40;;;;;;;6.96;62.43;99297.91;103319;1258;137586;-68
2023/02/18 09:51:52;;;;;;;12.50;3.00;;;;;;;6.96;61.99;99284.95;103724;1257;107105;-70
2023/02/18 09:54:20;;;;;;;11.20;3.40;;;;;;;6.92;62.02;99297.87;103216;1259;98251;-69
2023/02/18 09:56:49;;;;;;;15.10;3.40;;;;;;;6.89;62.16;99307.34;103026;1259;137261;-69
2023/02/18 09:59:22;;;;;;;10.90;2.50;;;;;;;6.86;62.13;99313.98;103273;1254;97834;-69
2023/02/18 10:01:53;;;;;;;15.50;3.20;;;;;;;6.82;61.96;99304.45;103073;1259;138773;-70
2023/02/18 10:04:23;;;;;;;14.50;3.40;;;;;;;6.76;62.24;99311.88;103276;1260;1003011;-69
2023/02/18 10:06:52;;;;;;;13.50;2.80;;;;;;;6.70;62.38;99313.98;103233;1259;98226;-68
2023/02/18 10:09:22;;;;;;;14.30;3.20;;;;;;;6.67;62.64;99317.70;102664;1254;1002675;-69
2023/02/18 10:11:52;;;;;;;14.60;3.20;;;;;;;6.68;62.51;99318.88;103265;1257;98007;-69
2023/02/18 10:14:20;;;;;;;16.80;3.20;;;;;;;6.65;62.47;99317.23;103311;1260;137329;-69
2023/02/18 10:16:50;;;;;;;18.40;3.90;;;;;;;6.64;62.35;99314.33;103158;1261;107438;-69
2023/02/18 10:19:26;;;;;;;11.90;3.00;;;;;;;6.61;62.31;99326.31;103162;1260;137850;-70
2023/02/18 10:21:55;;;;;;;21.50;3.10;;;;;;;6.62;62.43;99317.30;103223;1259;107474;-70
2023/02/18 10:24:30;;;;;;;12.30;2.70;;;;;;;6.66;62.19;99318.60;103537;1254;97804;-70
2023/02/18 10:26:59;;;;;;;12.40;2.90;;;;;;;6.67;62.06;99319.43;103100;1254;137369;-70
2023/02/18 10:29:28;;;;;;;17.00;3.70;;;;;;;6.67;62.22;99314.75;103286;1259;108351;-69
2023/02/18 10:32:05;;;;;;;12.80;2.70;;;;;;;6.74;62.23;99320.41;103034;1254;1015706;-68
2023/02/18 10:34:41;;;;;;;13.20;3.30;;;;;;;6.80;62.32;99317.44;103120;1254;108820;-70
2023/02/18 10:37:19;;;;;;;14.20;3.80;;;;;;;6.93;62.54;99326.03;102455;1259;1002994;-70
2023/02/18 10:40:00;;;;;;;16.90;3.30;;;;;;;7.05;62.03;99312.66;103766;1256;111483;-70
2023/02/18 10:42:39;;;;;;;14.40;3.30;;;;;;;7.11;61.48;99298.66;103218;1260;108776;-70
2023/02/18 10:45:38;;;;;;;14.30;2.90;;;;;;;7.15;61.72;99309.91;102536;1257;1003819;-70
2023/02/18 10:48:21;;;;;;;17.00;3.10;;;;;;;7.20;61.88;99310.80;103858;1257;107134;-69
2023/02/18 10:50:49;;;;;;;12.00;2.90;;;;;;;7.24;61.17;99296.48;103166;1257;137543;-70
2023/02/18 10:53:33;;;;;;;13.60;3.10;;;;;;;7.21;61.11;99298.13;103277;1259;112424;-70
2023/02/18 10:56:02;;;;;;;;;;;;;;;7.19;61.56;99296.14;103268;1260;137500;-69
2023/02/18 10:58:33;;;;;;;18.30;3.10;;;;;;;7.16;61.35;99283.05;103263;1259;98287;-70
2023/02/18 11:01:03;;;;;;;19.60;3.40;;;;;;;7.12;61.55;99286.70;103864;1257;107445;-70
2023/02/18 11:03:41;;;;;;;10.40;3.20;;;;;;;7.07;61.54;99282.35;103516;1255;97657;-70
2023/02/18 11:06:30;;;;;;;15.20;3.60;;;;;;;7.03;62.01;99291.48;103568;1256;110762;-69
2023/02/18 11:08:59;;;;;;;12.00;3.50;;;;;;;6.99;62.03;99278.33;103244;1257;137409;-69
2023/02/18 11:11:30;;;;;;;13.00;3.20;;;;;;;6.94;62.22;99290.73;103520;1257;99390;-70
2023/02/18 11:14:03;;;;;;;13.40;3.10;;;;;;;6.90;62.68;99290.02;103081;1257;137198;-69
2023/02/18 11:16:41;;;;;;;14.20;3.20;;;;;;;6.89;62.56;99294.89;103216;1258;97662;-70
2023/02/18 11:19:33;;;;;;;16.80;3.60;;;;;;;6.86;62.98;99286.34;103230;1257;112213;-70
2023/02/18 11:22:13;;;;;;;15.50;4.00;;;;;;;6.84;63.38;99292.96;103445;1256;107389;-70
2023/02/18 11:24:47;;;;;;;14.70;3.40;;;;;;;6.87;63.18;99285.80;103468;1256;98151;-69
2023/02/18 11:27:21;;;;;;;16.40;3.70;;;;;;;6.87;62.70;99282.67;103340;1257;137568;-69
2023/02/18 11:29:51;;;;;;;13.20;3.70;;;;;;;6.86;63.09;99273.91;103232;1260;97790;-69
2023/02/18 11:32:19;;;;;;;17.60;4.00;;;;;;;6.86;63.16;99273.74;103832;1255;137562;-69
2023/02/18 11:34:51;;;;;;;16.90;3.60;;;;;;;6.85;63.40;99284.11;103235;1256;107151;-69
2023/02/18 11:37:22;;;;;;;12.90;3.30;;;;;;;6.87;63.07;99271.09;103188;1257;137578;-69
2023/02/18 11:39:53;;;;;;;14.90;3.70;;;;;;;6.90;63.27;99278.44;103244;1257;107919;-69
2023/02/18 11:42:26;;;;;;;19.20;3.60;;;;;;;6.95;62.93;99266.86;103249;1254;97751;-69
2023/02/18 11:44:56;;;;;;;16.80;3.80;;;;;;;6.95;62.85;99268.92;103139;1257;137244;-70